createdAt,value
2022-10-08T00:01:28.856Z,52.25
2022-10-08T00:03:55.526Z,52.25
2022-10-08T00:06:24.155Z,52.26
2022-10-08T00:08:51.165Z,52.41
2022-10-08T00:11:18.510Z,52.54
2022-10-08T00:13:45.737Z,52.43
2022-10-08T00:16:14.149Z,52.60
2022-10-08T00:18:41.437Z,52.63
2022-10-08T00:21:08.696Z,52.63
2022-10-08T00:23:36.735Z,52.68
2022-10-08T00:26:03.747Z,52.66
2022-10-08T00:28:30.282Z,52.59
2022-10-08T00:30:56.659Z,52.85
2022-10-08T00:33:22.976Z,52.71
2022-10-08T00:35:49.318Z,53.22
2022-10-08T00:38:15.631Z,53.27
2022-10-08T00:40:43.994Z,53.18
2022-10-08T00:43:14.219Z,53.37
2022-10-08T00:45:41.216Z,53.27
2022-10-08T00:48:10.679Z,53.23
2022-10-08T00:50:37.034Z,53.28
2022-10-08T00:53:04.896Z,53.30
2022-10-08T00:55:31.765Z,53.40
2022-10-08T00:58:02.410Z,53.81
2022-10-08T01:00:29.600Z,53.67
2022-10-08T01:02:56.022Z,53.75
2022-10-08T01:05:28.150Z,53.50
2022-10-08T01:07:59.192Z,53.71
2022-10-08T01:10:32.148Z,53.60
2022-10-08T01:13:06.570Z,53.54
2022-10-08T01:15:36.365Z,53.52
2022-10-08T01:18:07.838Z,53.65
2022-10-08T01:20:38.050Z,53.99
2022-10-08T01:23:11.184Z,54.06
2022-10-08T01:25:43.542Z,53.92
2022-10-08T01:28:15.474Z,53.61
2022-10-08T01:30:45.405Z,54.03
2022-10-08T01:33:13.881Z,54.02
2022-10-08T01:35:43.455Z,54.05
2022-10-08T01:38:12.288Z,53.97
2022-10-08T01:40:41.400Z,53.96
2022-10-08T01:43:10.824Z,54.04
2022-10-08T01:45:40.778Z,54.21
2022-10-08T01:48:10.582Z,54.05
2022-10-08T01:50:38.886Z,53.97
2022-10-08T01:53:09.136Z,54.04
2022-10-08T01:55:37.149Z,54.01
2022-10-08T01:58:06.067Z,53.89
2022-10-08T02:00:33.370Z,54.06
2022-10-08T02:03:01.584Z,54.01
2022-10-08T02:05:29.797Z,54.06
2022-10-08T02:07:56.200Z,54.22
2022-10-08T02:10:23.556Z,53.73
2022-10-08T02:12:50.303Z,54.14
2022-10-08T02:15:18.947Z,53.79
2022-10-08T02:17:53.821Z,53.99
2022-10-08T02:20:25.655Z,54.02
2022-10-08T02:22:55.574Z,54.08
2022-10-08T02:25:25.454Z,53.96
2022-10-08T02:27:54.074Z,54.25
2022-10-08T02:30:20.707Z,54.25
2022-10-08T02:32:49.860Z,54.16
2022-10-08T02:35:19.511Z,54.21
2022-10-08T02:37:51.121Z,54.08
2022-10-08T02:40:18.223Z,54.02
2022-10-08T02:42:50.204Z,54.22
2022-10-08T02:45:18.964Z,54.10
2022-10-08T02:47:47.110Z,54.18
2022-10-08T02:50:16.510Z,54.16
2022-10-08T02:52:44.942Z,54.24
2022-10-08T02:55:17.932Z,54.47
2022-10-08T02:57:46.145Z,54.20
2022-10-08T03:00:12.808Z,54.16
2022-10-08T03:02:42.791Z,54.19
2022-10-08T03:05:13.201Z,54.17
2022-10-08T03:07:39.543Z,54.15
2022-10-08T03:10:06.777Z,54.09
2022-10-08T03:12:34.834Z,54.16
2022-10-08T03:15:01.354Z,54.19
2022-10-08T03:17:28.853Z,54.17
2022-10-08T03:19:55.194Z,54.11
2022-10-08T03:22:21.957Z,53.98
2022-10-08T03:24:48.281Z,54.00
2022-10-08T03:27:14.601Z,53.96
2022-10-08T03:29:42.237Z,53.88
2022-10-08T03:32:08.592Z,53.83
2022-10-08T03:34:34.918Z,53.52
2022-10-08T03:37:01.279Z,53.64
2022-10-08T03:39:27.587Z,53.90
2022-10-08T03:41:53.930Z,53.89
2022-10-08T03:44:20.249Z,53.53
2022-10-08T03:46:47.921Z,53.52
2022-10-08T03:49:14.363Z,53.46
2022-10-08T03:51:40.793Z,53.24
2022-10-08T03:54:07.442Z,53.17
2022-10-08T03:56:33.930Z,53.10
2022-10-08T03:59:00.928Z,52.98
2022-10-08T04:01:28.198Z,53.02
2022-10-08T04:03:55.921Z,53.00
2022-10-08T04:06:22.317Z,52.84
2022-10-08T04:08:48.652Z,52.61
2022-10-08T04:11:16.103Z,52.55
2022-10-08T04:13:42.677Z,52.44
2022-10-08T04:16:11.547Z,52.67
2022-10-08T04:18:38.344Z,52.55
2022-10-08T04:21:06.885Z,52.34
2022-10-08T04:23:34.316Z,52.32
2022-10-08T04:26:01.147Z,52.32
2022-10-08T04:28:27.636Z,52.40
2022-10-08T04:30:55.000Z,52.18
2022-10-08T04:33:21.411Z,51.87
2022-10-08T04:35:47.757Z,51.74
2022-10-08T04:38:15.436Z,51.76
2022-10-08T04:40:41.767Z,51.71
2022-10-08T04:43:08.181Z,51.50
2022-10-08T04:45:34.494Z,51.50
2022-10-08T04:48:00.814Z,51.26
2022-10-08T04:50:27.202Z,51.51
2022-10-08T04:52:53.593Z,51.49
2022-10-08T04:55:21.257Z,51.14
2022-10-08T04:57:47.837Z,50.76
2022-10-08T05:00:18.224Z,50.88
2022-10-08T05:02:47.437Z,50.79
2022-10-08T05:05:13.923Z,50.72
2022-10-08T05:07:40.258Z,50.54
2022-10-08T05:10:06.821Z,50.60
2022-10-08T05:12:34.450Z,50.67
2022-10-08T05:15:00.807Z,50.78
2022-10-08T05:17:27.263Z,50.72
2022-10-08T05:19:53.599Z,50.38
2022-10-08T05:22:19.957Z,50.04
2022-10-08T05:24:46.394Z,50.08
2022-10-08T05:27:12.729Z,50.03
2022-10-08T05:29:40.420Z,49.77
2022-10-08T05:32:06.850Z,49.90
2022-10-08T05:34:33.162Z,49.75
2022-10-08T05:36:59.494Z,49.68
2022-10-08T05:39:25.966Z,49.93
2022-10-08T05:41:52.368Z,49.70
2022-10-08T05:44:18.698Z,49.58
2022-10-08T05:46:46.346Z,49.41
2022-10-08T05:49:16.171Z,49.38
2022-10-08T05:51:42.489Z,49.16
2022-10-08T05:54:08.790Z,49.21
2022-10-08T05:56:35.255Z,49.19
2022-10-08T05:59:01.636Z,48.90
2022-10-08T06:01:28.937Z,49.01
2022-10-08T06:03:57.200Z,49.20
2022-10-08T06:06:24.196Z,48.77
2022-10-08T06:08:53.026Z,48.62
2022-10-08T06:11:19.365Z,48.62
2022-10-08T06:13:45.707Z,48.37
2022-10-08T06:16:12.484Z,48.50
2022-10-08T06:18:39.857Z,48.45
2022-10-08T06:21:08.268Z,48.41
2022-10-08T06:23:34.646Z,48.31
2022-10-08T06:26:01.449Z,48.18
2022-10-08T06:28:27.915Z,48.24
2022-10-08T06:30:54.594Z,48.19
2022-10-08T06:33:21.813Z,48.14
2022-10-08T06:35:48.246Z,48.01
2022-10-08T06:38:16.000Z,47.80
2022-10-08T06:40:42.354Z,47.93
2022-10-08T06:43:12.023Z,47.93
2022-10-08T06:45:38.658Z,47.63
2022-10-08T06:48:05.172Z,47.75
2022-10-08T06:50:31.566Z,47.80
2022-10-08T06:52:57.905Z,47.62
2022-10-08T06:55:25.539Z,47.59
2022-10-08T06:57:51.938Z,47.44
2022-10-08T07:00:18.407Z,47.61
2022-10-08T07:02:45.102Z,47.43
2022-10-08T07:05:12.048Z,47.47
2022-10-08T07:07:38.375Z,47.44
2022-10-08T07:10:05.017Z,47.59
2022-10-08T07:12:32.646Z,47.73
2022-10-08T07:14:58.971Z,47.65
2022-10-08T07:17:25.405Z,47.60
2022-10-08T07:19:51.811Z,47.48
2022-10-08T07:22:18.171Z,47.54
2022-10-08T07:24:44.495Z,47.73
2022-10-08T07:27:10.804Z,47.42
2022-10-08T07:29:38.458Z,47.44
2022-10-08T07:32:04.970Z,47.51
2022-10-08T07:34:31.489Z,47.64
2022-10-08T07:36:58.019Z,47.48
2022-10-08T07:39:24.971Z,47.51
2022-10-08T07:41:51.329Z,47.62
2022-10-08T07:44:17.963Z,47.60
2022-10-08T07:46:46.035Z,47.71
2022-10-08T07:49:12.386Z,47.61
2022-10-08T07:51:38.770Z,47.62
2022-10-08T07:54:06.233Z,47.67
2022-10-08T07:56:33.136Z,47.78
2022-10-08T07:58:59.983Z,47.82
2022-10-08T08:01:26.708Z,47.78
2022-10-08T08:03:55.208Z,47.88
2022-10-08T08:06:22.250Z,48.09
2022-10-08T08:08:48.779Z,48.21
2022-10-08T08:11:16.118Z,48.29
2022-10-08T08:13:43.027Z,48.25
2022-10-08T08:16:10.514Z,48.31
2022-10-08T08:18:37.663Z,48.63
2022-10-08T08:21:06.428Z,48.64
2022-10-08T08:23:34.039Z,48.75
2022-10-08T08:26:01.249Z,48.75
2022-10-08T08:28:27.655Z,48.82
2022-10-08T08:30:54.050Z,48.97
2022-10-08T08:33:20.372Z,49.18
2022-10-08T08:35:50.677Z,49.03
2022-10-08T08:38:18.457Z,49.27
2022-10-08T08:40:44.954Z,49.70
2022-10-08T08:43:11.353Z,49.77
2022-10-08T08:45:53.370Z,50.04
2022-10-08T08:48:21.781Z,49.80
2022-10-08T08:50:49.099Z,49.89
2022-10-08T08:53:15.614Z,49.91
2022-10-08T08:55:44.666Z,49.95
2022-10-08T08:58:22.248Z,49.97
2022-10-08T09:00:52.015Z,50.29
2022-10-08T09:03:20.070Z,50.45
2022-10-08T09:05:48.376Z,50.47
2022-10-08T09:08:17.920Z,50.49
2022-10-08T09:10:48.133Z,50.44
2022-10-08T09:13:17.574Z,50.66
2022-10-08T09:15:44.917Z,50.59
2022-10-08T09:18:14.118Z,50.79
2022-10-08T09:20:40.661Z,50.82
2022-10-08T09:23:10.929Z,50.79
2022-10-08T09:25:37.394Z,50.87
2022-10-08T09:28:05.110Z,51.14
2022-10-08T09:30:33.301Z,51.38
2022-10-08T09:33:01.008Z,51.35
2022-10-08T09:35:27.471Z,51.37
2022-10-08T09:37:54.430Z,51.33
2022-10-08T09:40:22.349Z,51.26
2022-10-08T09:43:03.622Z,51.21
2022-10-08T09:45:33.388Z,51.27
2022-10-08T09:48:13.212Z,51.46
2022-10-08T09:50:46.817Z,51.68
2022-10-08T09:53:13.209Z,51.61
2022-10-08T09:55:39.621Z,51.41
2022-10-08T09:58:06.200Z,51.41
2022-10-08T10:00:35.058Z,51.36
2022-10-08T10:03:03.353Z,51.40
2022-10-08T10:05:31.296Z,51.20
2022-10-08T10:07:57.854Z,51.49
2022-10-08T10:10:26.186Z,51.45
2022-10-08T10:12:53.901Z,51.41
2022-10-08T10:15:22.595Z,51.28
2022-10-08T10:17:52.043Z,51.19
2022-10-08T10:20:21.994Z,50.93
2022-10-08T10:22:51.393Z,50.70
2022-10-08T10:25:23.226Z,50.67
2022-10-08T10:27:51.856Z,50.60
2022-10-08T10:30:19.722Z,50.35
2022-10-08T10:32:48.568Z,50.41
2022-10-08T10:35:20.346Z,49.87
2022-10-08T10:37:49.554Z,50.13
2022-10-08T10:40:23.676Z,50.00
2022-10-08T10:42:53.795Z,50.01
2022-10-08T10:45:21.947Z,49.70
2022-10-08T10:47:48.910Z,49.87
2022-10-08T10:50:20.150Z,49.74
2022-10-08T10:52:51.039Z,49.52
2022-10-08T10:55:20.993Z,49.63
2022-10-08T10:57:54.701Z,49.49
2022-10-08T11:00:22.358Z,49.84
2022-10-08T11:02:52.159Z,49.67
2022-10-08T11:05:22.743Z,49.28
2022-10-08T11:07:56.262Z,49.37
2022-10-08T11:10:29.269Z,49.52
2022-10-08T11:12:59.645Z,49.50
2022-10-08T11:15:31.512Z,49.15
2022-10-08T11:18:06.837Z,49.30
2022-10-08T11:20:42.370Z,49.23
2022-10-08T11:23:15.430Z,49.29
2022-10-08T11:26:13.963Z,48.92
2022-10-08T11:28:38.886Z,49.01
2022-10-08T11:31:10.763Z,48.87
2022-10-08T11:33:37.628Z,48.73
2022-10-08T11:36:18.890Z,48.56
2022-10-08T11:38:48.967Z,48.52
2022-10-08T11:41:21.754Z,48.71
2022-10-08T11:43:52.849Z,48.89
2022-10-08T11:46:21.866Z,48.70
2022-10-08T11:48:48.740Z,48.42
2022-10-08T11:51:29.943Z,48.31
2022-10-08T11:54:02.814Z,47.92
2022-10-08T11:56:29.348Z,47.75
2022-10-08T11:58:57.279Z,47.71
2022-10-08T12:01:24.117Z,47.28
2022-10-08T12:04:00.283Z,47.46
2022-10-08T12:06:28.420Z,47.40
2022-10-08T12:08:56.090Z,47.38
2022-10-08T12:11:34.897Z,47.05
2022-10-08T12:14:10.783Z,46.91
2022-10-08T12:16:45.250Z,46.89
2022-10-08T12:19:21.386Z,47.14
2022-10-08T12:21:50.327Z,47.07
2022-10-08T12:24:31.483Z,46.52
2022-10-08T12:27:12.686Z,46.49
2022-10-08T12:29:52.710Z,46.10
2022-10-08T12:32:19.246Z,45.97
2022-10-08T12:34:45.649Z,46.03
2022-10-08T12:37:20.046Z,45.93
2022-10-08T12:39:46.774Z,45.40
2022-10-08T12:42:17.484Z,45.68
2022-10-08T12:44:48.313Z,45.80
2022-10-08T12:47:20.680Z,45.82
2022-10-08T12:49:52.043Z,46.07
2022-10-08T12:52:20.891Z,45.99
2022-10-08T12:54:48.902Z,45.77
2022-10-08T12:57:19.809Z,45.61
2022-10-08T12:59:46.229Z,45.59
2022-10-08T13:02:24.827Z,45.77
2022-10-08T13:04:51.161Z,45.42
2022-10-08T13:07:24.702Z,45.26
2022-10-08T13:09:53.707Z,45.43
2022-10-08T13:12:20.142Z,45.45
2022-10-08T13:14:46.721Z,45.54
2022-10-08T13:17:28.480Z,45.38
2022-10-08T13:20:04.226Z,45.36
2022-10-08T13:22:31.825Z,45.67
2022-10-08T13:24:58.312Z,45.65
2022-10-08T13:27:25.608Z,45.60
2022-10-08T13:29:52.340Z,45.63
2022-10-08T13:32:20.403Z,45.73
2022-10-08T13:34:48.586Z,45.72
2022-10-08T13:37:16.571Z,45.44
2022-10-08T13:39:50.019Z,45.22
2022-10-08T13:42:18.198Z,45.65
2022-10-08T13:44:44.912Z,45.76
2022-10-08T13:47:12.170Z,45.83
2022-10-08T13:49:38.812Z,45.56
2022-10-08T13:52:05.602Z,45.61
2022-10-08T13:54:32.595Z,45.52
2022-10-08T13:57:00.375Z,45.46
2022-10-08T13:59:30.441Z,45.37
2022-10-08T14:01:57.365Z,45.47
2022-10-08T14:04:23.886Z,45.55
2022-10-08T14:06:52.690Z,45.60
2022-10-08T14:09:20.498Z,45.52
2022-10-08T14:11:46.973Z,45.53
2022-10-08T14:14:15.078Z,45.74
2022-10-08T14:16:41.904Z,45.66
2022-10-08T14:19:12.011Z,45.59
2022-10-08T14:21:39.596Z,45.76
2022-10-08T14:24:06.408Z,45.79
2022-10-08T14:26:32.854Z,46.04
2022-10-08T14:28:59.495Z,45.92
2022-10-08T14:31:27.785Z,45.78
2022-10-08T14:33:54.356Z,45.86
2022-10-08T14:36:22.706Z,45.81
2022-10-08T14:38:49.013Z,45.82
2022-10-08T14:41:15.395Z,45.73
2022-10-08T14:43:41.827Z,45.93
2022-10-08T14:46:08.506Z,46.36
2022-10-08T14:48:36.274Z,45.90
2022-10-08T14:51:02.589Z,45.90
2022-10-08T14:53:28.941Z,46.08
2022-10-08T14:56:11.700Z,46.16
2022-10-08T14:58:38.653Z,46.22
2022-10-08T15:01:05.257Z,46.04
2022-10-08T15:03:31.578Z,46.42
2022-10-08T15:05:59.606Z,46.05
2022-10-08T15:08:26.366Z,46.19
2022-10-08T15:10:52.790Z,46.19
2022-10-08T15:13:19.126Z,45.93
2022-10-08T15:15:45.697Z,45.57
2022-10-08T15:18:12.111Z,45.52
2022-10-08T15:20:39.085Z,45.60
2022-10-08T15:23:07.154Z,45.78
2022-10-08T15:25:33.469Z,45.81
2022-10-08T15:27:59.877Z,46.15
2022-10-08T15:30:26.294Z,45.93
2022-10-08T15:32:52.644Z,45.89
2022-10-08T15:35:18.982Z,45.73
2022-10-08T15:37:45.709Z,45.60
2022-10-08T15:40:13.344Z,45.93
2022-10-08T15:42:40.022Z,46.23
2022-10-08T15:45:06.841Z,46.25
2022-10-08T15:47:33.183Z,46.10
2022-10-08T15:49:59.699Z,46.11
2022-10-08T15:52:26.147Z,45.91
2022-10-08T15:54:52.481Z,46.04
2022-10-08T15:57:20.119Z,46.13
2022-10-08T15:59:46.556Z,46.34
2022-10-08T16:02:17.106Z,46.44
2022-10-08T16:04:44.865Z,46.35
2022-10-08T16:07:11.188Z,46.08
2022-10-08T16:09:37.512Z,46.27
2022-10-08T16:12:03.836Z,46.19
2022-10-08T16:14:31.509Z,46.37
2022-10-08T16:16:57.906Z,46.31
2022-10-08T16:19:25.002Z,46.47
2022-10-08T16:21:52.303Z,46.64
2022-10-08T16:24:19.362Z,46.40
2022-10-08T16:26:45.901Z,46.39
2022-10-08T16:29:13.503Z,46.40
2022-10-08T16:31:42.157Z,46.20
2022-10-08T16:34:11.503Z,46.02
2022-10-08T16:36:37.827Z,46.19
2022-10-08T16:39:04.990Z,46.60
2022-10-08T16:41:32.333Z,46.47
2022-10-08T16:43:59.584Z,46.46
2022-10-08T16:46:27.200Z,46.22
2022-10-08T16:48:55.921Z,46.25
2022-10-08T16:51:23.341Z,46.33
2022-10-08T16:53:50.410Z,46.26
2022-10-08T16:56:17.330Z,46.37
2022-10-08T16:58:44.092Z,46.75
2022-10-08T17:01:10.553Z,46.76
2022-10-08T17:03:37.184Z,46.65
2022-10-08T17:06:05.074Z,46.55
2022-10-08T17:08:31.438Z,46.54
2022-10-08T17:10:57.769Z,46.46
2022-10-08T17:13:24.116Z,46.77
2022-10-08T17:15:58.161Z,46.97
2022-10-08T17:18:25.135Z,46.95
2022-10-08T17:20:53.616Z,46.83
2022-10-08T17:23:21.270Z,46.75
2022-10-08T17:25:53.114Z,46.75
2022-10-08T17:28:19.642Z,46.63
2022-10-08T17:30:46.060Z,46.80
2022-10-08T17:33:12.501Z,47.07
2022-10-08T17:35:38.919Z,46.74
2022-10-08T17:38:05.243Z,46.81
2022-10-08T17:40:32.984Z,46.74
2022-10-08T17:42:59.314Z,46.73
2022-10-08T17:45:25.832Z,46.65
2022-10-08T17:47:52.217Z,46.67
2022-10-08T17:50:18.665Z,46.70
2022-10-08T17:52:45.470Z,46.71
2022-10-08T17:55:15.379Z,46.98
2022-10-08T17:57:44.562Z,46.93
2022-10-08T18:00:12.403Z,46.83
2022-10-08T18:02:38.802Z,46.71
2022-10-08T18:05:05.397Z,46.77
2022-10-08T18:07:31.832Z,46.53
2022-10-08T18:09:58.170Z,46.52
2022-10-08T18:12:24.503Z,46.55
2022-10-08T18:14:52.162Z,46.84
2022-10-08T18:17:18.505Z,46.71
2022-10-08T18:19:44.819Z,46.79
2022-10-08T18:22:11.166Z,46.72
2022-10-08T18:24:37.498Z,46.68
2022-10-08T18:27:03.884Z,46.61
2022-10-08T18:29:30.244Z,46.57
2022-10-08T18:31:57.915Z,46.57
2022-10-08T18:34:24.235Z,46.46
2022-10-08T18:36:50.607Z,46.75
2022-10-08T18:39:18.406Z,46.66
2022-10-08T18:41:45.559Z,46.56
2022-10-08T18:44:13.752Z,46.52
2022-10-08T18:46:40.224Z,46.43
2022-10-08T18:49:07.886Z,46.51
2022-10-08T18:51:34.516Z,46.48
2022-10-08T18:54:01.024Z,46.53
2022-10-08T18:56:28.285Z,46.33
2022-10-08T18:58:55.087Z,46.51
2022-10-08T19:01:22.336Z,46.46
2022-10-08T19:03:50.209Z,46.46
2022-10-08T19:06:18.902Z,46.51
2022-10-08T19:08:45.194Z,46.45
2022-10-08T19:11:12.244Z,46.42
2022-10-08T19:13:38.774Z,46.29
2022-10-08T19:16:05.569Z,46.43
2022-10-08T19:18:32.044Z,46.46
2022-10-08T19:21:05.981Z,46.57
2022-10-08T19:23:33.619Z,46.55
2022-10-08T19:25:59.966Z,46.42
2022-10-08T19:28:26.330Z,46.52
2022-10-08T19:30:52.748Z,46.47
2022-10-08T19:33:19.061Z,46.46
2022-10-08T19:35:45.514Z,46.18
2022-10-08T19:38:11.820Z,46.37
2022-10-08T19:40:39.435Z,46.20
2022-10-08T19:43:05.871Z,46.34
2022-10-08T19:45:33.256Z,46.62
2022-10-08T19:47:59.587Z,46.38
2022-10-08T19:50:25.914Z,46.28
2022-10-08T19:52:52.539Z,46.24
2022-10-08T19:55:19.238Z,46.29
2022-10-08T19:57:46.874Z,46.31
2022-10-08T20:00:13.621Z,46.25
2022-10-08T20:02:39.995Z,46.21
2022-10-08T20:05:06.961Z,46.31
2022-10-08T20:07:33.406Z,46.38
2022-10-08T20:09:59.789Z,46.31
2022-10-08T20:12:26.172Z,46.27
2022-10-08T20:14:53.881Z,46.05
2022-10-08T20:17:20.213Z,46.13
2022-10-08T20:19:46.544Z,46.10
2022-10-08T20:22:12.924Z,46.03
2022-10-08T20:24:39.267Z,46.06
2022-10-08T20:27:05.578Z,46.26
2022-10-08T20:29:31.942Z,46.35
2022-10-08T20:31:59.548Z,46.13
2022-10-08T20:34:26.376Z,46.23
2022-10-08T20:36:53.198Z,46.16
2022-10-08T20:39:20.289Z,46.14
2022-10-08T20:41:47.223Z,46.10
2022-10-08T20:44:13.971Z,45.89
2022-10-08T20:46:40.437Z,45.89
2022-10-08T20:49:10.004Z,46.00
2022-10-08T20:51:38.181Z,46.17
2022-10-08T20:54:05.520Z,46.02
2022-10-08T20:56:37.104Z,45.97
2022-10-08T20:59:05.920Z,45.86
2022-10-08T21:01:33.041Z,46.03
2022-10-08T21:03:59.826Z,45.83
2022-10-08T21:06:28.675Z,45.92
2022-10-08T21:08:55.729Z,46.04
2022-10-08T21:11:22.973Z,46.10
2022-10-08T21:13:49.343Z,46.34
2022-10-08T21:16:17.003Z,46.02
2022-10-08T21:18:43.519Z,46.02
2022-10-08T21:21:11.437Z,46.06
2022-10-08T21:23:39.723Z,46.05
2022-10-08T21:26:07.342Z,45.96
2022-10-08T21:28:33.896Z,46.15
2022-10-08T21:31:03.993Z,46.00
2022-10-08T21:33:30.914Z,45.92
2022-10-08T21:35:57.415Z,46.10
2022-10-08T21:38:24.369Z,45.98
2022-10-08T21:40:55.770Z,45.88
2022-10-08T21:43:22.250Z,46.06
2022-10-08T21:45:56.183Z,45.90
2022-10-08T21:48:22.899Z,45.90
2022-10-08T21:50:57.248Z,45.84
2022-10-08T21:53:23.649Z,45.94
2022-10-08T21:55:54.717Z,45.79
2022-10-08T21:58:21.406Z,45.93
2022-10-08T22:00:47.782Z,45.91
2022-10-08T22:03:15.562Z,45.91
2022-10-08T22:05:48.845Z,45.83
2022-10-08T22:08:15.187Z,45.70
2022-10-08T22:10:41.495Z,45.65
2022-10-08T22:13:09.154Z,45.85
2022-10-08T22:15:35.597Z,45.67
2022-10-08T22:18:01.890Z,45.70
2022-10-08T22:20:28.236Z,45.86
2022-10-08T22:22:54.697Z,45.90
2022-10-08T22:25:21.010Z,45.66
2022-10-08T22:27:47.336Z,45.59
2022-10-08T22:30:15.117Z,45.71
2022-10-08T22:32:41.451Z,45.36
2022-10-08T22:35:08.359Z,45.51
2022-10-08T22:37:34.682Z,45.63
2022-10-08T22:40:01.043Z,45.40
2022-10-08T22:42:27.397Z,45.51
2022-10-08T22:44:53.718Z,45.52
2022-10-08T22:47:21.320Z,45.55
2022-10-08T22:49:47.742Z,45.34
2022-10-08T22:52:14.099Z,45.23
2022-10-08T22:54:40.515Z,45.33
2022-10-08T22:57:06.855Z,45.24
2022-10-08T22:59:33.195Z,45.08
2022-10-08T23:01:59.680Z,45.24
2022-10-08T23:04:27.315Z,45.25
2022-10-08T23:06:53.626Z,45.36
2022-10-08T23:09:19.948Z,45.23
2022-10-08T23:11:46.415Z,45.06
2022-10-08T23:14:12.921Z,44.96
2022-10-08T23:16:39.298Z,44.93
2022-10-08T23:19:07.268Z,45.01
2022-10-08T23:21:35.051Z,44.88
2022-10-08T23:24:01.437Z,44.75
2022-10-08T23:26:29.450Z,44.94
2022-10-08T23:28:57.539Z,45.03
2022-10-08T23:31:25.867Z,44.81
2022-10-08T23:33:53.464Z,44.79
2022-10-08T23:36:20.875Z,44.76
2022-10-08T23:38:48.928Z,44.63
2022-10-08T23:41:15.510Z,44.73
2022-10-08T23:43:42.827Z,44.70
2022-10-08T23:46:10.301Z,44.53
2022-10-08T23:48:36.894Z,44.69
2022-10-08T23:51:03.813Z,44.52
2022-10-08T23:53:30.364Z,44.49
2022-10-08T23:55:58.128Z,44.36
2022-10-08T23:58:24.626Z,44.37
